sensor_id;sensor_type;location;lat;lon;timestamp;P1;durP1;ratioP1;P2;durP2;ratioP2
22646;SDS011;11490;42.726;23.268;2022-09-30T00:01:07;6.85;;;5.15;;
22646;SDS011;11490;42.726;23.268;2022-09-30T00:03:33;10.70;;;5.25;;
22646;SDS011;11490;42.726;23.268;2022-09-30T00:06:00;9.38;;;4.85;;
22646;SDS011;11490;42.726;23.268;2022-09-30T00:08:28;12.05;;;5.70;;
22646;SDS011;11490;42.726;23.268;2022-09-30T00:11:01;8.73;;;5.63;;
22646;SDS011;11490;42.726;23.268;2022-09-30T00:13:28;10.35;;;5.15;;
22646;SDS011;11490;42.726;23.268;2022-09-30T00:15:55;13.85;;;5.97;;
22646;SDS011;11490;42.726;23.268;2022-09-30T00:18:21;10.18;;;5.43;;
22646;SDS011;11490;42.726;23.268;2022-09-30T00:20:46;10.43;;;5.85;;
22646;SDS011;11490;42.726;23.268;2022-09-30T00:23:12;11.13;;;5.18;;
22646;SDS011;11490;42.726;23.268;2022-09-30T00:25:37;10.27;;;5.25;;
22646;SDS011;11490;42.726;23.268;2022-09-30T00:28:05;10.10;;;5.30;;
22646;SDS011;11490;42.726;23.268;2022-09-30T00:30:32;9.65;;;5.70;;
22646;SDS011;11490;42.726;23.268;2022-09-30T00:32:58;8.73;;;5.63;;
22646;SDS011;11490;42.726;23.268;2022-09-30T00:35:24;7.75;;;5.00;;
22646;SDS011;11490;42.726;23.268;2022-09-30T00:37:49;8.82;;;6.57;;
22646;SDS011;11490;42.726;23.268;2022-09-30T00:40:15;11.82;;;6.10;;
22646;SDS011;11490;42.726;23.268;2022-09-30T00:42:40;12.80;;;6.38;;
22646;SDS011;11490;42.726;23.268;2022-09-30T00:45:08;19.45;;;6.90;;
22646;SDS011;11490;42.726;23.268;2022-09-30T00:47:49;9.32;;;5.57;;
22646;SDS011;11490;42.726;23.268;2022-09-30T00:53:03;10.13;;;6.22;;
22646;SDS011;11490;42.726;23.268;2022-09-30T00:55:55;15.70;;;7.30;;
22646;SDS011;11490;42.726;23.268;2022-09-30T01:01:00;15.85;;;7.45;;
22646;SDS011;11490;42.726;23.268;2022-09-30T01:03:34;12.23;;;6.85;;
22646;SDS011;11490;42.726;23.268;2022-09-30T01:06:02;18.20;;;8.68;;
22646;SDS011;11490;42.726;23.268;2022-09-30T01:08:28;14.20;;;7.43;;
22646;SDS011;11490;42.726;23.268;2022-09-30T01:11:00;13.30;;;7.93;;
22646;SDS011;11490;42.726;23.268;2022-09-30T01:13:25;15.77;;;8.55;;
22646;SDS011;11490;42.726;23.268;2022-09-30T01:18:55;14.55;;;7.45;;
22646;SDS011;11490;42.726;23.268;2022-09-30T01:24:14;13.98;;;7.38;;
22646;SDS011;11490;42.726;23.268;2022-09-30T01:27:24;14.43;;;7.22;;
22646;SDS011;11490;42.726;23.268;2022-09-30T01:40:45;10.18;;;6.43;;
22646;SDS011;11490;42.726;23.268;2022-09-30T01:46:19;9.50;;;5.43;;
22646;SDS011;11490;42.726;23.268;2022-09-30T01:48:56;13.82;;;6.20;;
22646;SDS011;11490;42.726;23.268;2022-09-30T01:51:44;10.65;;;6.55;;
22646;SDS011;11490;42.726;23.268;2022-09-30T01:57:05;10.77;;;5.78;;
22646;SDS011;11490;42.726;23.268;2022-09-30T01:59:53;9.40;;;5.63;;
22646;SDS011;11490;42.726;23.268;2022-09-30T02:02:27;8.35;;;5.68;;
22646;SDS011;11490;42.726;23.268;2022-09-30T02:05:02;10.95;;;6.43;;
22646;SDS011;11490;42.726;23.268;2022-09-30T02:07:47;10.45;;;6.35;;
22646;SDS011;11490;42.726;23.268;2022-09-30T02:10:30;9.70;;;5.90;;
22646;SDS011;11490;42.726;23.268;2022-09-30T02:13:03;10.00;;;6.03;;
22646;SDS011;11490;42.726;23.268;2022-09-30T02:15:35;9.00;;;5.63;;
22646;SDS011;11490;42.726;23.268;2022-09-30T02:18:09;11.77;;;5.85;;
22646;SDS011;11490;42.726;23.268;2022-09-30T02:20:43;8.30;;;4.97;;
22646;SDS011;11490;42.726;23.268;2022-09-30T02:23:14;8.07;;;4.60;;
22646;SDS011;11490;42.726;23.268;2022-09-30T02:25:50;7.82;;;5.30;;
22646;SDS011;11490;42.726;23.268;2022-09-30T02:28:31;7.85;;;4.72;;
22646;SDS011;11490;42.726;23.268;2022-09-30T02:30:59;6.95;;;4.72;;
22646;SDS011;11490;42.726;23.268;2022-09-30T02:33:38;8.30;;;5.30;;
22646;SDS011;11490;42.726;23.268;2022-09-30T02:36:08;8.65;;;5.82;;
22646;SDS011;11490;42.726;23.268;2022-09-30T02:38:40;10.30;;;6.30;;
22646;SDS011;11490;42.726;23.268;2022-09-30T02:41:13;12.30;;;7.00;;
22646;SDS011;11490;42.726;23.268;2022-09-30T02:43:45;9.93;;;5.80;;
22646;SDS011;11490;42.726;23.268;2022-09-30T02:54:53;12.77;;;7.85;;
22646;SDS011;11490;42.726;23.268;2022-09-30T02:57:34;18.88;;;8.65;;
22646;SDS011;11490;42.726;23.268;2022-09-30T03:00:06;14.18;;;7.95;;
22646;SDS011;11490;42.726;23.268;2022-09-30T03:02:33;13.23;;;7.88;;
22646;SDS011;11490;42.726;23.268;2022-09-30T03:04:58;13.60;;;7.38;;
22646;SDS011;11490;42.726;23.268;2022-09-30T03:07:24;13.55;;;7.53;;
22646;SDS011;11490;42.726;23.268;2022-09-30T03:09:54;17.88;;;6.60;;
22646;SDS011;11490;42.726;23.268;2022-09-30T03:12:38;11.88;;;7.65;;
22646;SDS011;11490;42.726;23.268;2022-09-30T03:15:17;11.95;;;6.50;;
22646;SDS011;11490;42.726;23.268;2022-09-30T03:23:36;9.60;;;5.90;;
22646;SDS011;11490;42.726;23.268;2022-09-30T03:42:27;14.38;;;4.93;;
22646;SDS011;11490;42.726;23.268;2022-09-30T03:47:33;7.28;;;4.15;;
22646;SDS011;11490;42.726;23.268;2022-09-30T03:50:05;8.45;;;5.28;;
22646;SDS011;11490;42.726;23.268;2022-09-30T03:52:33;7.35;;;4.32;;
22646;SDS011;11490;42.726;23.268;2022-09-30T03:55:01;7.90;;;4.57;;
22646;SDS011;11490;42.726;23.268;2022-09-30T03:57:29;10.10;;;4.70;;
22646;SDS011;11490;42.726;23.268;2022-09-30T03:59:55;7.55;;;4.30;;
22646;SDS011;11490;42.726;23.268;2022-09-30T04:02:21;7.80;;;4.70;;
22646;SDS011;11490;42.726;23.268;2022-09-30T04:04:47;9.80;;;4.97;;
22646;SDS011;11490;42.726;23.268;2022-09-30T04:07:13;8.82;;;4.85;;
22646;SDS011;11490;42.726;23.268;2022-09-30T04:09:38;8.30;;;5.03;;
22646;SDS011;11490;42.726;23.268;2022-09-30T04:12:04;10.13;;;5.70;;
22646;SDS011;11490;42.726;23.268;2022-09-30T04:14:31;9.00;;;5.40;;
22646;SDS011;11490;42.726;23.268;2022-09-30T04:16:56;9.25;;;4.93;;
22646;SDS011;11490;42.726;23.268;2022-09-30T04:19:22;8.10;;;5.18;;
22646;SDS011;11490;42.726;23.268;2022-09-30T04:21:49;16.23;;;5.07;;
22646;SDS011;11490;42.726;23.268;2022-09-30T04:24:15;8.98;;;5.28;;
22646;SDS011;11490;42.726;23.268;2022-09-30T04:26:41;7.78;;;5.03;;
22646;SDS011;11490;42.726;23.268;2022-09-30T04:29:06;12.05;;;5.20;;
22646;SDS011;11490;42.726;23.268;2022-09-30T04:31:31;6.90;;;5.22;;
22646;SDS011;11490;42.726;23.268;2022-09-30T04:33:57;8.32;;;5.22;;
22646;SDS011;11490;42.726;23.268;2022-09-30T04:36:22;7.13;;;4.30;;
22646;SDS011;11490;42.726;23.268;2022-09-30T04:38:48;9.32;;;5.03;;
22646;SDS011;11490;42.726;23.268;2022-09-30T04:41:14;9.18;;;4.30;;
22646;SDS011;11490;42.726;23.268;2022-09-30T04:43:41;11.05;;;5.43;;
22646;SDS011;11490;42.726;23.268;2022-09-30T04:46:15;17.02;;;5.85;;
22646;SDS011;11490;42.726;23.268;2022-09-30T04:48:42;8.82;;;5.35;;
22646;SDS011;11490;42.726;23.268;2022-09-30T04:51:19;6.57;;;4.43;;
22646;SDS011;11490;42.726;23.268;2022-09-30T04:53:46;7.35;;;5.03;;
22646;SDS011;11490;42.726;23.268;2022-09-30T04:56:12;8.60;;;5.10;;
22646;SDS011;11490;42.726;23.268;2022-09-30T04:58:38;8.85;;;5.35;;
22646;SDS011;11490;42.726;23.268;2022-09-30T05:01:08;7.60;;;4.80;;
22646;SDS011;11490;42.726;23.268;2022-09-30T05:03:38;11.40;;;5.30;;
22646;SDS011;11490;42.726;23.268;2022-09-30T05:06:04;9.40;;;5.85;;
22646;SDS011;11490;42.726;23.268;2022-09-30T05:08:31;8.82;;;4.95;;
22646;SDS011;11490;42.726;23.268;2022-09-30T05:11:01;91.07;;;36.65;;
22646;SDS011;11490;42.726;23.268;2022-09-30T05:13:29;14.90;;;8.60;;
22646;SDS011;11490;42.726;23.268;2022-09-30T05:15:56;29.35;;;12.50;;
22646;SDS011;11490;42.726;23.268;2022-09-30T05:18:22;12.15;;;6.47;;
22646;SDS011;11490;42.726;23.268;2022-09-30T05:20:53;10.25;;;5.32;;
22646;SDS011;11490;42.726;23.268;2022-09-30T05:23:24;15.65;;;5.57;;
22646;SDS011;11490;42.726;23.268;2022-09-30T05:25:50;10.98;;;5.85;;
22646;SDS011;11490;42.726;23.268;2022-09-30T05:28:16;9.30;;;5.32;;
22646;SDS011;11490;42.726;23.268;2022-09-30T05:30:42;11.57;;;5.80;;
22646;SDS011;11490;42.726;23.268;2022-09-30T05:33:09;10.52;;;5.80;;
22646;SDS011;11490;42.726;23.268;2022-09-30T05:35:35;9.55;;;5.60;;
22646;SDS011;11490;42.726;23.268;2022-09-30T05:38:04;13.68;;;5.90;;
22646;SDS011;11490;42.726;23.268;2022-09-30T05:40:38;13.98;;;5.95;;
22646;SDS011;11490;42.726;23.268;2022-09-30T05:43:04;11.52;;;6.65;;
22646;SDS011;11490;42.726;23.268;2022-09-30T05:45:37;15.57;;;6.55;;
22646;SDS011;11490;42.726;23.268;2022-09-30T05:48:28;14.20;;;6.55;;
22646;SDS011;11490;42.726;23.268;2022-09-30T05:51:20;13.88;;;6.53;;
22646;SDS011;11490;42.726;23.268;2022-09-30T05:53:46;18.05;;;7.05;;
22646;SDS011;11490;42.726;23.268;2022-09-30T05:56:11;14.30;;;8.23;;
22646;SDS011;11490;42.726;23.268;2022-09-30T05:58:37;17.58;;;7.35;;
22646;SDS011;11490;42.726;23.268;2022-09-30T06:01:04;17.48;;;7.85;;
22646;SDS011;11490;42.726;23.268;2022-09-30T06:03:32;18.38;;;8.02;;
22646;SDS011;11490;42.726;23.268;2022-09-30T06:05:58;18.15;;;8.18;;
22646;SDS011;11490;42.726;23.268;2022-09-30T06:08:24;23.05;;;10.70;;
22646;SDS011;11490;42.726;23.268;2022-09-30T06:10:49;27.45;;;12.73;;
22646;SDS011;11490;42.726;23.268;2022-09-30T06:13:15;23.88;;;10.93;;
22646;SDS011;11490;42.726;23.268;2022-09-30T06:15:41;31.67;;;12.13;;
22646;SDS011;11490;42.726;23.268;2022-09-30T06:18:08;25.30;;;11.95;;
22646;SDS011;11490;42.726;23.268;2022-09-30T06:20:34;24.23;;;12.95;;
22646;SDS011;11490;42.726;23.268;2022-09-30T06:23:01;23.33;;;12.43;;
22646;SDS011;11490;42.726;23.268;2022-09-30T06:25:30;23.52;;;12.35;;
22646;SDS011;11490;42.726;23.268;2022-09-30T06:27:59;23.20;;;11.80;;
22646;SDS011;11490;42.726;23.268;2022-09-30T06:30:26;31.73;;;12.45;;
22646;SDS011;11490;42.726;23.268;2022-09-30T06:32:54;23.70;;;12.82;;
22646;SDS011;11490;42.726;23.268;2022-09-30T06:35:41;29.23;;;13.32;;
22646;SDS011;11490;42.726;23.268;2022-09-30T06:38:11;28.13;;;13.82;;
22646;SDS011;11490;42.726;23.268;2022-09-30T06:40:41;33.95;;;14.20;;
22646;SDS011;11490;42.726;23.268;2022-09-30T06:43:07;35.53;;;15.90;;
22646;SDS011;11490;42.726;23.268;2022-09-30T06:45:34;34.42;;;16.83;;
22646;SDS011;11490;42.726;23.268;2022-09-30T06:48:00;33.67;;;16.65;;
22646;SDS011;11490;42.726;23.268;2022-09-30T06:50:28;31.92;;;16.30;;
22646;SDS011;11490;42.726;23.268;2022-09-30T06:53:02;31.02;;;15.18;;
22646;SDS011;11490;42.726;23.268;2022-09-30T06:55:30;35.85;;;17.52;;
22646;SDS011;11490;42.726;23.268;2022-09-30T06:57:56;37.15;;;17.77;;
22646;SDS011;11490;42.726;23.268;2022-09-30T07:00:22;38.55;;;18.13;;
22646;SDS011;11490;42.726;23.268;2022-09-30T07:02:54;35.58;;;16.30;;
22646;SDS011;11490;42.726;23.268;2022-09-30T07:05:23;33.83;;;16.80;;
22646;SDS011;11490;42.726;23.268;2022-09-30T07:07:52;35.15;;;16.17;;
22646;SDS011;11490;42.726;23.268;2022-09-30T07:10:18;30.98;;;14.13;;
22646;SDS011;11490;42.726;23.268;2022-09-30T07:12:47;31.05;;;15.07;;
22646;SDS011;11490;42.726;23.268;2022-09-30T07:15:14;28.73;;;14.65;;
22646;SDS011;11490;42.726;23.268;2022-09-30T07:17:39;30.30;;;13.50;;
22646;SDS011;11490;42.726;23.268;2022-09-30T07:20:05;34.58;;;15.45;;
22646;SDS011;11490;42.726;23.268;2022-09-30T07:22:32;34.95;;;16.38;;
22646;SDS011;11490;42.726;23.268;2022-09-30T07:24:59;39.05;;;16.40;;
22646;SDS011;11490;42.726;23.268;2022-09-30T07:27:28;35.08;;;17.33;;
22646;SDS011;11490;42.726;23.268;2022-09-30T07:29:56;32.90;;;15.73;;
22646;SDS011;11490;42.726;23.268;2022-09-30T07:32:23;36.15;;;17.77;;
22646;SDS011;11490;42.726;23.268;2022-09-30T07:34:49;33.90;;;17.00;;
22646;SDS011;11490;42.726;23.268;2022-09-30T07:37:16;42.70;;;18.73;;
22646;SDS011;11490;42.726;23.268;2022-09-30T07:39:43;39.88;;;17.00;;
22646;SDS011;11490;42.726;23.268;2022-09-30T07:42:10;34.08;;;17.42;;
22646;SDS011;11490;42.726;23.268;2022-09-30T07:44:37;42.50;;;19.25;;
22646;SDS011;11490;42.726;23.268;2022-09-30T07:47:09;37.42;;;18.27;;
22646;SDS011;11490;42.726;23.268;2022-09-30T07:49:35;30.30;;;14.55;;
22646;SDS011;11490;42.726;23.268;2022-09-30T07:52:01;31.38;;;14.40;;
22646;SDS011;11490;42.726;23.268;2022-09-30T07:54:28;29.95;;;15.43;;
22646;SDS011;11490;42.726;23.268;2022-09-30T07:56:55;31.17;;;14.20;;
22646;SDS011;11490;42.726;23.268;2022-09-30T07:59:21;35.53;;;15.23;;
22646;SDS011;11490;42.726;23.268;2022-09-30T08:01:47;27.15;;;14.32;;
22646;SDS011;11490;42.726;23.268;2022-09-30T08:04:14;30.67;;;13.25;;
22646;SDS011;11490;42.726;23.268;2022-09-30T08:06:43;24.95;;;14.35;;
22646;SDS011;11490;42.726;23.268;2022-09-30T08:09:11;27.08;;;13.75;;
22646;SDS011;11490;42.726;23.268;2022-09-30T08:11:38;28.55;;;13.90;;
22646;SDS011;11490;42.726;23.268;2022-09-30T08:14:05;30.27;;;14.68;;
22646;SDS011;11490;42.726;23.268;2022-09-30T08:16:30;26.67;;;14.35;;
22646;SDS011;11490;42.726;23.268;2022-09-30T08:18:57;23.67;;;13.57;;
22646;SDS011;11490;42.726;23.268;2022-09-30T08:21:24;25.42;;;12.15;;
22646;SDS011;11490;42.726;23.268;2022-09-30T08:23:50;30.23;;;13.18;;
22646;SDS011;11490;42.726;23.268;2022-09-30T08:26:16;19.13;;;10.88;;
22646;SDS011;11490;42.726;23.268;2022-09-30T08:28:42;22.30;;;11.45;;
22646;SDS011;11490;42.726;23.268;2022-09-30T08:31:21;26.92;;;13.30;;
22646;SDS011;11490;42.726;23.268;2022-09-30T08:33:48;30.83;;;12.80;;
22646;SDS011;11490;42.726;23.268;2022-09-30T08:36:17;24.45;;;13.38;;
22646;SDS011;11490;42.726;23.268;2022-09-30T08:38:47;17.85;;;9.90;;
22646;SDS011;11490;42.726;23.268;2022-09-30T08:43:44;21.50;;;9.95;;
22646;SDS011;11490;42.726;23.268;2022-09-30T08:49:23;16.15;;;8.75;;
22646;SDS011;11490;42.726;23.268;2022-09-30T08:51:51;14.93;;;7.88;;
22646;SDS011;11490;42.726;23.268;2022-09-30T08:54:19;17.58;;;7.50;;
22646;SDS011;11490;42.726;23.268;2022-09-30T08:56:48;15.32;;;8.10;;
22646;SDS011;11490;42.726;23.268;2022-09-30T09:01:58;14.68;;;7.35;;
22646;SDS011;11490;42.726;23.268;2022-09-30T09:04:33;15.57;;;8.10;;
22646;SDS011;11490;42.726;23.268;2022-09-30T09:07:07;15.32;;;7.38;;
22646;SDS011;11490;42.726;23.268;2022-09-30T09:15:27;14.73;;;7.85;;
22646;SDS011;11490;42.726;23.268;2022-09-30T09:20:52;11.80;;;7.03;;
22646;SDS011;11490;42.726;23.268;2022-09-30T09:23:24;17.77;;;7.88;;
22646;SDS011;11490;42.726;23.268;2022-09-30T09:25:50;15.80;;;7.05;;
22646;SDS011;11490;42.726;23.268;2022-09-30T09:28:24;14.80;;;7.78;;
22646;SDS011;11490;42.726;23.268;2022-09-30T09:30:59;17.30;;;8.20;;
22646;SDS011;11490;42.726;23.268;2022-09-30T09:33:44;15.80;;;8.25;;
22646;SDS011;11490;42.726;23.268;2022-09-30T09:36:20;15.48;;;6.88;;
22646;SDS011;11490;42.726;23.268;2022-09-30T09:42:25;12.48;;;5.72;;
22646;SDS011;11490;42.726;23.268;2022-09-30T09:47:30;10.73;;;5.07;;
22646;SDS011;11490;42.726;23.268;2022-09-30T09:49:57;7.03;;;4.43;;
22646;SDS011;11490;42.726;23.268;2022-09-30T09:52:32;6.93;;;4.22;;
22646;SDS011;11490;42.726;23.268;2022-09-30T09:55:04;6.93;;;4.70;;
22646;SDS011;11490;42.726;23.268;2022-09-30T09:57:30;11.20;;;4.43;;
22646;SDS011;11490;42.726;23.268;2022-09-30T10:02:27;8.90;;;3.90;;
22646;SDS011;11490;42.726;23.268;2022-09-30T10:04:54;8.15;;;4.55;;
22646;SDS011;11490;42.726;23.268;2022-09-30T10:07:28;6.93;;;3.55;;
22646;SDS011;11490;42.726;23.268;2022-09-30T10:10:16;12.30;;;4.18;;
22646;SDS011;11490;42.726;23.268;2022-09-30T10:12:44;8.38;;;3.05;;
22646;SDS011;11490;42.726;23.268;2022-09-30T10:17:52;7.53;;;2.38;;
22646;SDS011;11490;42.726;23.268;2022-09-30T10:20:28;3.75;;;1.65;;
22646;SDS011;11490;42.726;23.268;2022-09-30T10:23:30;3.83;;;1.92;;
22646;SDS011;11490;42.726;23.268;2022-09-30T10:26:03;2.97;;;1.65;;
22646;SDS011;11490;42.726;23.268;2022-09-30T10:28:45;5.57;;;2.00;;
22646;SDS011;11490;42.726;23.268;2022-09-30T10:31:22;4.05;;;1.85;;
22646;SDS011;11490;42.726;23.268;2022-09-30T10:36:38;3.70;;;2.03;;
22646;SDS011;11490;42.726;23.268;2022-09-30T10:39:14;3.53;;;1.83;;
22646;SDS011;11490;42.726;23.268;2022-09-30T10:41:48;4.40;;;1.92;;
22646;SDS011;11490;42.726;23.268;2022-09-30T10:44:15;4.05;;;1.83;;
22646;SDS011;11490;42.726;23.268;2022-09-30T10:46:45;2.13;;;1.38;;
22646;SDS011;11490;42.726;23.268;2022-09-30T10:49:56;3.10;;;1.77;;
22646;SDS011;11490;42.726;23.268;2022-09-30T10:52:29;2.72;;;1.42;;
22646;SDS011;11490;42.726;23.268;2022-09-30T10:54:57;2.58;;;1.58;;
22646;SDS011;11490;42.726;23.268;2022-09-30T10:57:25;1.75;;;1.40;;
22646;SDS011;11490;42.726;23.268;2022-09-30T10:59:56;6.07;;;1.58;;
22646;SDS011;11490;42.726;23.268;2022-09-30T11:03:09;3.75;;;2.50;;
22646;SDS011;11490;42.726;23.268;2022-09-30T11:05:20;3.20;;;2.22;;
22646;SDS011;11490;42.726;23.268;2022-09-30T11:08:12;4.22;;;1.70;;
22646;SDS011;11490;42.726;23.268;2022-09-30T11:19:07;4.07;;;1.58;;
22646;SDS011;11490;42.726;23.268;2022-09-30T11:21:51;2.60;;;1.52;;
22646;SDS011;11490;42.726;23.268;2022-09-30T11:35:50;2.03;;;1.40;;
22646;SDS011;11490;42.726;23.268;2022-09-30T11:54:18;2.13;;;1.50;;
22646;SDS011;11490;42.726;23.268;2022-09-30T12:05:52;3.22;;;1.60;;
22646;SDS011;11490;42.726;23.268;2022-09-30T12:07:59;2.92;;;1.77;;
22646;SDS011;11490;42.726;23.268;2022-09-30T12:10:32;2.20;;;1.60;;
22646;SDS011;11490;42.726;23.268;2022-09-30T12:13:11;4.60;;;1.70;;
22646;SDS011;11490;42.726;23.268;2022-09-30T12:15:43;2.67;;;1.90;;
22646;SDS011;11490;42.726;23.268;2022-09-30T12:18:16;4.22;;;2.03;;
22646;SDS011;11490;42.726;23.268;2022-09-30T12:23:19;3.45;;;1.58;;
22646;SDS011;11490;42.726;23.268;2022-09-30T12:25:53;2.17;;;1.35;;
22646;SDS011;11490;42.726;23.268;2022-09-30T12:28:23;4.38;;;1.63;;
22646;SDS011;11490;42.726;23.268;2022-09-30T12:31:24;2.47;;;1.52;;
22646;SDS011;11490;42.726;23.268;2022-09-30T12:48:51;3.00;;;1.67;;
22646;SDS011;11490;42.726;23.268;2022-09-30T12:51:22;3.22;;;1.63;;
22646;SDS011;11490;42.726;23.268;2022-09-30T12:53:51;2.42;;;1.63;;
22646;SDS011;11490;42.726;23.268;2022-09-30T12:56:24;7.20;;;3.15;;
22646;SDS011;11490;42.726;23.268;2022-09-30T12:58:52;4.78;;;1.75;;
22646;SDS011;11490;42.726;23.268;2022-09-30T13:01:30;2.33;;;1.52;;
22646;SDS011;11490;42.726;23.268;2022-09-30T13:06:26;1.92;;;1.40;;
22646;SDS011;11490;42.726;23.268;2022-09-30T13:11:44;3.75;;;1.25;;
22646;SDS011;11490;42.726;23.268;2022-09-30T13:19:41;2.35;;;1.63;;
22646;SDS011;11490;42.726;23.268;2022-09-30T13:30:53;2.97;;;1.33;;
22646;SDS011;11490;42.726;23.268;2022-09-30T13:44:38;2.42;;;1.60;;
22646;SDS011;11490;42.726;23.268;2022-09-30T13:47:14;1.77;;;1.30;;
22646;SDS011;11490;42.726;23.268;2022-09-30T13:50:08;4.35;;;1.45;;
22646;SDS011;11490;42.726;23.268;2022-09-30T13:52:36;1.67;;;1.13;;
22646;SDS011;11490;42.726;23.268;2022-09-30T13:55:05;2.83;;;1.20;;
22646;SDS011;11490;42.726;23.268;2022-09-30T13:57:46;5.03;;;1.38;;
22646;SDS011;11490;42.726;23.268;2022-09-30T14:00:17;2.75;;;1.38;;
22646;SDS011;11490;42.726;23.268;2022-09-30T14:05:34;2.78;;;1.30;;
22646;SDS011;11490;42.726;23.268;2022-09-30T14:08:11;3.17;;;1.73;;
22646;SDS011;11490;42.726;23.268;2022-09-30T14:14:03;3.58;;;2.55;;
22646;SDS011;11490;42.726;23.268;2022-09-30T14:19:06;1.27;;;1.08;;
22646;SDS011;11490;42.726;23.268;2022-09-30T14:21:51;2.80;;;1.45;;
22646;SDS011;11490;42.726;23.268;2022-09-30T14:24:24;2.05;;;1.25;;
22646;SDS011;11490;42.726;23.268;2022-09-30T14:32:47;2.28;;;1.38;;
22646;SDS011;11490;42.726;23.268;2022-09-30T14:35:27;2.47;;;1.40;;
22646;SDS011;11490;42.726;23.268;2022-09-30T14:37:59;1.90;;;1.40;;
22646;SDS011;11490;42.726;23.268;2022-09-30T14:40:32;4.03;;;1.48;;
22646;SDS011;11490;42.726;23.268;2022-09-30T14:43:00;2.78;;;1.73;;
22646;SDS011;11490;42.726;23.268;2022-09-30T14:45:30;8.85;;;2.15;;
22646;SDS011;11490;42.726;23.268;2022-09-30T14:47:59;2.30;;;1.60;;
22646;SDS011;11490;42.726;23.268;2022-09-30T14:50:36;1.98;;;1.40;;
22646;SDS011;11490;42.726;23.268;2022-09-30T14:53:26;2.45;;;1.42;;
22646;SDS011;11490;42.726;23.268;2022-09-30T14:55:53;2.55;;;1.38;;
22646;SDS011;11490;42.726;23.268;2022-09-30T14:58:53;2.97;;;1.90;;
22646;SDS011;11490;42.726;23.268;2022-09-30T15:01:15;1.98;;;1.20;;
22646;SDS011;11490;42.726;23.268;2022-09-30T15:03:53;1.85;;;1.17;;
22646;SDS011;11490;42.726;23.268;2022-09-30T15:06:23;2.65;;;1.33;;
22646;SDS011;11490;42.726;23.268;2022-09-30T15:09:03;1.88;;;1.38;;
22646;SDS011;11490;42.726;23.268;2022-09-30T15:11:32;2.90;;;1.58;;
22646;SDS011;11490;42.726;23.268;2022-09-30T15:14:02;1.90;;;1.45;;
22646;SDS011;11490;42.726;23.268;2022-09-30T15:16:52;2.33;;;1.70;;
22646;SDS011;11490;42.726;23.268;2022-09-30T15:19:28;3.45;;;1.60;;
22646;SDS011;11490;42.726;23.268;2022-09-30T15:22:00;5.03;;;1.83;;
22646;SDS011;11490;42.726;23.268;2022-09-30T15:24:28;2.40;;;1.48;;
22646;SDS011;11490;42.726;23.268;2022-09-30T15:26:56;4.38;;;2.60;;
22646;SDS011;11490;42.726;23.268;2022-09-30T15:29:24;4.72;;;2.53;;
22646;SDS011;11490;42.726;23.268;2022-09-30T15:32:00;4.32;;;1.92;;
22646;SDS011;11490;42.726;23.268;2022-09-30T15:34:28;4.57;;;2.35;;
22646;SDS011;11490;42.726;23.268;2022-09-30T15:36:58;4.78;;;2.63;;
22646;SDS011;11490;42.726;23.268;2022-09-30T15:39:31;4.25;;;2.00;;
22646;SDS011;11490;42.726;23.268;2022-09-30T15:42:26;6.20;;;2.00;;
22646;SDS011;11490;42.726;23.268;2022-09-30T15:44:55;3.22;;;2.53;;
22646;SDS011;11490;42.726;23.268;2022-09-30T15:47:22;11.32;;;2.80;;
22646;SDS011;11490;42.726;23.268;2022-09-30T15:49:48;2.50;;;1.98;;
22646;SDS011;11490;42.726;23.268;2022-09-30T15:52:36;4.93;;;2.38;;
22646;SDS011;11490;42.726;23.268;2022-09-30T15:55:01;6.88;;;3.10;;
22646;SDS011;11490;42.726;23.268;2022-09-30T15:57:49;9.40;;;3.15;;
22646;SDS011;11490;42.726;23.268;2022-09-30T16:00:38;7.53;;;3.10;;
22646;SDS011;11490;42.726;23.268;2022-09-30T16:03:25;5.78;;;3.05;;
22646;SDS011;11490;42.726;23.268;2022-09-30T16:05:53;6.00;;;3.28;;
22646;SDS011;11490;42.726;23.268;2022-09-30T16:08:36;4.60;;;2.00;;
22646;SDS011;11490;42.726;23.268;2022-09-30T16:11:06;3.60;;;2.40;;
22646;SDS011;11490;42.726;23.268;2022-09-30T16:13:32;4.32;;;2.42;;
22646;SDS011;11490;42.726;23.268;2022-09-30T16:16:09;4.60;;;2.33;;
22646;SDS011;11490;42.726;23.268;2022-09-30T16:18:50;6.00;;;2.60;;
22646;SDS011;11490;42.726;23.268;2022-09-30T16:21:41;10.35;;;2.78;;
22646;SDS011;11490;42.726;23.268;2022-09-30T16:24:57;6.72;;;2.65;;
22646;SDS011;11490;42.726;23.268;2022-09-30T16:26:56;9.68;;;2.45;;
22646;SDS011;11490;42.726;23.268;2022-09-30T16:29:25;3.70;;;2.50;;
22646;SDS011;11490;42.726;23.268;2022-09-30T16:31:55;5.90;;;2.58;;
22646;SDS011;11490;42.726;23.268;2022-09-30T16:34:24;4.65;;;2.45;;
22646;SDS011;11490;42.726;23.268;2022-09-30T16:37:02;10.25;;;3.50;;
22646;SDS011;11490;42.726;23.268;2022-09-30T16:39:34;4.28;;;2.42;;
22646;SDS011;11490;42.726;23.268;2022-09-30T16:41:59;9.18;;;3.33;;
22646;SDS011;11490;42.726;23.268;2022-09-30T16:44:28;4.72;;;2.70;;
22646;SDS011;11490;42.726;23.268;2022-09-30T16:47:01;5.65;;;2.78;;
22646;SDS011;11490;42.726;23.268;2022-09-30T16:49:27;3.67;;;2.20;;
22646;SDS011;11490;42.726;23.268;2022-09-30T16:51:52;4.75;;;2.65;;
22646;SDS011;11490;42.726;23.268;2022-09-30T16:54:18;9.23;;;3.10;;
22646;SDS011;11490;42.726;23.268;2022-09-30T16:56:43;4.78;;;2.75;;
22646;SDS011;11490;42.726;23.268;2022-09-30T16:59:13;4.25;;;2.88;;
22646;SDS011;11490;42.726;23.268;2022-09-30T17:01:41;4.60;;;2.55;;
22646;SDS011;11490;42.726;23.268;2022-09-30T17:04:07;6.68;;;2.78;;
22646;SDS011;11490;42.726;23.268;2022-09-30T17:06:33;4.97;;;3.25;;
22646;SDS011;11490;42.726;23.268;2022-09-30T17:09:00;6.05;;;3.17;;
22646;SDS011;11490;42.726;23.268;2022-09-30T17:11:30;5.20;;;2.67;;
22646;SDS011;11490;42.726;23.268;2022-09-30T17:14:00;4.18;;;2.65;;
22646;SDS011;11490;42.726;23.268;2022-09-30T17:16:27;7.63;;;2.90;;
22646;SDS011;11490;42.726;23.268;2022-09-30T17:18:53;5.05;;;2.53;;
22646;SDS011;11490;42.726;23.268;2022-09-30T17:21:22;9.80;;;3.47;;
22646;SDS011;11490;42.726;23.268;2022-09-30T17:23:49;4.32;;;2.60;;
22646;SDS011;11490;42.726;23.268;2022-09-30T17:26:15;7.63;;;3.00;;
22646;SDS011;11490;42.726;23.268;2022-09-30T17:28:40;4.47;;;2.35;;
22646;SDS011;11490;42.726;23.268;2022-09-30T17:31:06;2.75;;;2.20;;
22646;SDS011;11490;42.726;23.268;2022-09-30T17:33:34;7.38;;;2.80;;
22646;SDS011;11490;42.726;23.268;2022-09-30T17:36:05;6.88;;;2.80;;
22646;SDS011;11490;42.726;23.268;2022-09-30T17:38:33;6.22;;;2.28;;
22646;SDS011;11490;42.726;23.268;2022-09-30T17:40:59;4.20;;;2.50;;
22646;SDS011;11490;42.726;23.268;2022-09-30T17:43:43;7.43;;;4.25;;
22646;SDS011;11490;42.726;23.268;2022-09-30T17:46:10;10.32;;;4.32;;
22646;SDS011;11490;42.726;23.268;2022-09-30T17:48:36;9.23;;;3.70;;
22646;SDS011;11490;42.726;23.268;2022-09-30T17:51:03;9.95;;;5.40;;
22646;SDS011;11490;42.726;23.268;2022-09-30T17:53:30;13.63;;;5.53;;
22646;SDS011;11490;42.726;23.268;2022-09-30T17:56:06;12.02;;;5.53;;
22646;SDS011;11490;42.726;23.268;2022-09-30T17:58:38;16.75;;;6.25;;
22646;SDS011;11490;42.726;23.268;2022-09-30T18:01:04;9.93;;;5.35;;
22646;SDS011;11490;42.726;23.268;2022-09-30T18:03:31;9.57;;;6.38;;
22646;SDS011;11490;42.726;23.268;2022-09-30T18:05:57;19.27;;;7.40;;
22646;SDS011;11490;42.726;23.268;2022-09-30T18:08:23;12.30;;;7.30;;